createdAt,value
2022-10-20T00:00:56.915Z,96794.91
2022-10-20T00:03:24.997Z,96790.09
2022-10-20T00:05:51.811Z,96786.34
2022-10-20T00:08:18.562Z,96789.19
2022-10-20T00:10:55.604Z,96779.69
2022-10-20T00:13:23.259Z,96784.25
2022-10-20T00:15:51.180Z,96774.63
2022-10-20T00:18:17.943Z,96779.97
2022-10-20T00:20:44.765Z,96771.34
2022-10-20T00:23:11.483Z,96768.81
2022-10-20T00:25:38.283Z,96770.88
2022-10-20T00:28:05.777Z,96769.16
2022-10-20T00:30:33.932Z,96773.38
2022-10-20T00:33:01.107Z,96768.00
2022-10-20T00:35:27.685Z,96768.78
2022-10-20T00:37:54.301Z,96769.38
2022-10-20T00:40:20.968Z,96762.63
2022-10-20T00:42:48.219Z,96762.72
2022-10-20T00:45:17.716Z,96764.44
2022-10-20T00:48:05.126Z,96764.69
2022-10-20T00:50:41.703Z,96759.19
2022-10-20T00:53:08.541Z,96766.16
2022-10-20T00:55:40.534Z,96739.16
2022-10-20T00:58:07.388Z,96753.47
2022-10-20T01:00:34.412Z,96736.34
2022-10-20T01:03:02.711Z,96734.56
2022-10-20T01:05:29.344Z,96735.28
2022-10-20T01:07:56.015Z,96740.31
2022-10-20T01:10:25.393Z,96738.69
2022-10-20T01:13:29.211Z,96734.53
2022-10-20T01:16:09.433Z,96728.19
2022-10-20T01:18:35.971Z,96736.34
2022-10-20T01:21:26.594Z,96728.97
2022-10-20T01:24:32.011Z,96727.50
2022-10-20T01:27:33.099Z,96730.63
2022-10-20T01:30:13.513Z,96736.06
2022-10-20T01:33:04.842Z,96730.03
2022-10-20T01:35:55.088Z,96728.75
2022-10-20T01:38:42.377Z,96716.38
2022-10-20T01:41:21.603Z,96718.78
2022-10-20T01:43:49.900Z,96715.03
2022-10-20T01:46:21.691Z,96721.31
2022-10-20T01:48:49.207Z,96724.19
2022-10-20T01:51:15.955Z,96715.13
2022-10-20T01:53:42.547Z,96722.22
2022-10-20T01:56:18.338Z,96727.03
2022-10-20T01:59:06.419Z,96719.53
2022-10-20T02:01:41.896Z,96714.44
2022-10-20T02:04:09.643Z,96707.97
2022-10-20T02:06:47.647Z,96697.97
2022-10-20T02:09:22.981Z,96706.00
2022-10-20T02:12:13.498Z,96707.00
2022-10-20T02:14:42.190Z,96702.66
2022-10-20T02:17:14.240Z,96699.28
2022-10-20T02:19:44.833Z,96693.44
2022-10-20T02:22:14.105Z,96694.59
2022-10-20T02:24:42.300Z,96687.88
2022-10-20T02:27:21.022Z,96678.72
2022-10-20T02:29:55.017Z,96675.38
2022-10-20T02:32:22.966Z,96681.63
2022-10-20T02:34:49.586Z,96688.44
2022-10-20T02:39:48.101Z,96677.78
2022-10-20T02:42:17.131Z,96673.97
2022-10-20T02:44:44.078Z,96669.81
2022-10-20T02:47:10.807Z,96672.38
2022-10-20T02:49:37.378Z,96671.72
2022-10-20T02:52:04.067Z,96664.81
2022-10-20T02:54:30.642Z,96670.69
2022-10-20T02:56:57.274Z,96662.22
2022-10-20T02:59:23.918Z,96657.13
2022-10-20T03:01:52.354Z,96659.81
2022-10-20T03:04:19.077Z,96658.66
2022-10-20T03:06:45.691Z,96656.78
2022-10-20T03:09:12.545Z,96659.59
2022-10-20T03:11:39.155Z,96655.47
2022-10-20T03:14:05.770Z,96658.00
2022-10-20T03:16:32.385Z,96657.75
2022-10-20T03:19:03.356Z,96651.84
2022-10-20T03:21:33.949Z,96653.44
2022-10-20T03:24:00.682Z,96667.94
2022-10-20T03:26:27.354Z,96655.66
2022-10-20T03:28:53.967Z,96659.19
2022-10-20T03:31:20.715Z,96666.22
2022-10-20T03:33:47.311Z,96661.22
2022-10-20T03:36:13.917Z,96661.88
2022-10-20T03:38:43.329Z,96666.16
2022-10-20T03:41:10.380Z,96651.09
2022-10-20T03:43:39.124Z,96658.13
2022-10-20T03:46:08.375Z,96655.28
2022-10-20T03:48:35.712Z,96656.78
2022-10-20T03:51:02.987Z,96651.94
2022-10-20T03:53:30.182Z,96651.84
2022-10-20T03:55:56.786Z,96647.84
2022-10-20T03:58:23.714Z,96639.94
2022-10-20T04:00:50.570Z,96632.06
2022-10-20T04:03:17.199Z,96624.59
2022-10-20T04:05:43.838Z,96625.81
2022-10-20T04:08:10.508Z,96624.91
2022-10-20T04:10:37.203Z,96628.84
2022-10-20T04:13:04.034Z,96628.84
2022-10-20T04:15:31.071Z,96627.97
2022-10-20T04:17:58.110Z,96627.16
2022-10-20T04:20:24.863Z,96628.09
2022-10-20T04:22:51.544Z,96617.94
2022-10-20T04:25:18.337Z,96621.50
2022-10-20T04:27:44.972Z,96616.88
2022-10-20T04:30:11.931Z,96611.59
2022-10-20T04:32:38.522Z,96608.53
2022-10-20T04:35:05.713Z,96605.22
2022-10-20T04:37:32.358Z,96601.31
2022-10-20T04:39:58.972Z,96610.41
2022-10-20T04:42:25.756Z,96599.88
2022-10-20T04:44:52.372Z,96598.34
2022-10-20T04:47:18.983Z,96603.78
2022-10-20T04:49:45.590Z,96605.78
2022-10-20T04:52:12.142Z,96609.78
2022-10-20T04:54:38.739Z,96607.25
2022-10-20T04:57:06.297Z,96599.28
2022-10-20T04:59:32.930Z,96595.66
2022-10-20T05:01:59.550Z,96600.88
2022-10-20T05:04:26.347Z,96602.13
2022-10-20T05:06:52.983Z,96600.53
2022-10-20T05:09:19.605Z,96597.91
2022-10-20T05:11:46.484Z,96587.34
2022-10-20T05:14:13.214Z,96589.44
2022-10-20T05:16:39.778Z,96588.88
2022-10-20T05:19:06.451Z,96583.81
2022-10-20T05:21:33.281Z,96587.03
2022-10-20T05:24:02.360Z,96582.56
2022-10-20T05:26:34.465Z,96578.56
2022-10-20T05:29:03.254Z,96579.25
2022-10-20T05:31:29.931Z,96586.13
2022-10-20T05:33:57.280Z,96582.41
2022-10-20T05:36:26.778Z,96589.78
2022-10-20T05:38:54.979Z,96593.94
2022-10-20T05:41:27.358Z,96586.00
2022-10-20T05:43:59.766Z,96588.69
2022-10-20T05:46:28.437Z,96589.09
2022-10-20T05:48:57.823Z,96591.03
2022-10-20T05:51:27.996Z,96584.72
2022-10-20T05:53:58.776Z,96592.69
2022-10-20T05:56:26.858Z,96594.97
2022-10-20T05:58:53.939Z,96600.56
2022-10-20T06:01:38.809Z,96599.78
2022-10-20T06:04:06.686Z,96606.13
2022-10-20T06:06:33.270Z,96608.56
2022-10-20T06:09:00.943Z,96607.28
2022-10-20T06:11:28.582Z,96614.13
2022-10-20T06:13:56.588Z,96610.22
2022-10-20T06:16:25.414Z,96611.38
2022-10-20T06:18:52.935Z,96608.19
2022-10-20T06:21:25.831Z,96613.66
2022-10-20T06:23:52.814Z,96617.09
2022-10-20T06:26:21.716Z,96615.72
2022-10-20T06:28:51.757Z,96618.91
2022-10-20T06:31:30.397Z,96628.25
2022-10-20T06:33:58.043Z,96622.44
2022-10-20T06:36:25.590Z,96622.38
2022-10-20T06:38:57.466Z,96635.75
2022-10-20T06:41:26.136Z,96631.25
2022-10-20T06:43:58.373Z,96632.78
2022-10-20T06:46:27.244Z,96633.53
2022-10-20T06:48:57.908Z,96634.94
2022-10-20T06:51:26.161Z,96632.25
2022-10-20T06:53:53.102Z,96633.34
2022-10-20T06:56:22.966Z,96625.47
2022-10-20T06:58:53.280Z,96631.47
2022-10-20T07:01:24.967Z,96625.91
2022-10-20T07:03:54.719Z,96626.94
2022-10-20T07:06:27.119Z,96628.41
2022-10-20T07:08:54.804Z,96623.06
2022-10-20T07:11:24.479Z,96625.75
2022-10-20T07:13:51.388Z,96618.44
2022-10-20T07:16:20.554Z,96619.25
2022-10-20T07:18:48.036Z,96622.50
2022-10-20T07:21:17.357Z,96618.50
2022-10-20T07:23:44.948Z,96627.25
2022-10-20T07:26:16.002Z,96619.38
2022-10-20T07:28:44.705Z,96622.25
2022-10-20T07:31:32.512Z,96620.78
2022-10-20T07:34:12.763Z,96620.41
2022-10-20T07:36:43.288Z,96615.84
2022-10-20T07:39:12.447Z,96618.16
2022-10-20T07:41:39.754Z,96612.28
2022-10-20T07:44:07.678Z,96608.69
2022-10-20T07:46:34.971Z,96601.16
2022-10-20T07:51:48.389Z,96600.97
2022-10-20T07:54:15.033Z,96595.59
2022-10-20T07:56:43.187Z,96592.41
2022-10-20T07:59:11.671Z,96583.16
2022-10-20T08:01:38.836Z,96587.41
2022-10-20T08:04:05.438Z,96580.75
2022-10-20T08:06:32.116Z,96579.13
2022-10-20T08:09:00.256Z,96579.34
2022-10-20T08:11:27.527Z,96583.06
2022-10-20T08:13:54.148Z,96583.28
2022-10-20T08:16:31.982Z,96586.88
2022-10-20T08:21:47.863Z,96583.44
2022-10-20T08:24:14.456Z,96578.94
2022-10-20T08:26:41.057Z,96581.44
2022-10-20T08:29:07.653Z,96583.47
2022-10-20T08:31:34.249Z,96583.28
2022-10-20T08:34:00.995Z,96576.19
2022-10-20T08:36:30.677Z,96580.19
2022-10-20T08:39:03.616Z,96574.97
2022-10-20T08:41:55.445Z,96575.66
2022-10-20T08:44:30.300Z,96567.38
2022-10-20T08:46:58.124Z,96567.25
2022-10-20T08:49:28.832Z,96562.94
2022-10-20T08:51:55.499Z,96562.72
2022-10-20T08:54:22.297Z,96559.88
2022-10-20T08:56:48.905Z,96551.06
2022-10-20T08:59:29.858Z,96551.75
2022-10-20T09:01:57.989Z,96552.06
2022-10-20T09:04:35.023Z,96551.56
2022-10-20T09:07:10.935Z,96553.75
2022-10-20T09:09:37.564Z,96553.00
2022-10-20T09:12:12.403Z,96559.34
2022-10-20T09:14:39.205Z,96559.09
2022-10-20T09:17:13.148Z,96553.34
2022-10-20T09:19:42.908Z,96550.16
2022-10-20T09:22:13.594Z,96543.63
2022-10-20T09:24:42.853Z,96535.84
2022-10-20T09:27:23.419Z,96540.97
2022-10-20T09:29:50.565Z,96539.47
2022-10-20T09:35:13.562Z,96516.50
2022-10-20T09:37:40.373Z,96512.66
2022-10-20T09:40:15.451Z,96509.53
2022-10-20T09:42:51.200Z,96511.59
2022-10-20T09:45:30.140Z,96509.38
2022-10-20T09:48:02.679Z,96513.06
2022-10-20T09:50:38.539Z,96500.16
2022-10-20T09:53:15.460Z,96501.28
2022-10-20T09:55:47.584Z,96503.44
2022-10-20T09:58:39.159Z,96499.88
2022-10-20T10:01:11.780Z,96495.75
2022-10-20T10:03:45.124Z,96490.00
2022-10-20T10:06:38.990Z,96485.75
2022-10-20T10:09:34.570Z,96484.47
2022-10-20T10:12:05.331Z,96479.63
2022-10-20T10:14:36.267Z,96487.47
2022-10-20T10:17:03.132Z,96482.13
2022-10-20T10:19:33.120Z,96472.75
2022-10-20T10:22:03.035Z,96475.31
2022-10-20T10:24:32.629Z,96478.53
2022-10-20T10:26:59.762Z,96464.44
2022-10-20T10:29:33.751Z,96457.38
2022-10-20T10:32:00.317Z,96449.75
2022-10-20T10:34:56.049Z,96449.22
2022-10-20T10:37:23.004Z,96452.25
2022-10-20T10:39:49.838Z,96439.81
2022-10-20T10:42:54.961Z,96437.03
2022-10-20T10:45:38.451Z,96434.81
2022-10-20T10:48:29.002Z,96427.28
2022-10-20T10:51:08.848Z,96417.56
2022-10-20T10:53:58.514Z,96422.19
2022-10-20T10:56:42.319Z,96424.13
2022-10-20T10:59:17.789Z,96423.09
2022-10-20T11:02:16.776Z,96416.16
2022-10-20T11:04:55.339Z,96419.06
2022-10-20T11:07:59.997Z,96428.97
2022-10-20T11:10:54.842Z,96423.59
2022-10-20T11:13:48.609Z,96418.50
2022-10-20T11:16:33.681Z,96412.25
2022-10-20T11:19:37.620Z,96405.34
2022-10-20T11:22:56.898Z,96394.34
2022-10-20T11:25:46.924Z,96392.28
2022-10-20T11:28:29.553Z,96387.91
2022-10-20T11:30:59.100Z,96369.56
2022-10-20T11:33:39.281Z,96374.63
2022-10-20T11:36:19.406Z,96366.88
2022-10-20T11:38:50.986Z,96361.72
2022-10-20T11:41:31.266Z,96361.25
2022-10-20T11:44:06.802Z,96353.00
2022-10-20T11:46:52.365Z,96355.16
2022-10-20T11:49:19.356Z,96356.56
2022-10-20T11:52:05.010Z,96345.22
2022-10-20T11:54:34.435Z,96348.03
2022-10-20T11:57:12.889Z,96346.00
2022-10-20T11:59:39.453Z,96335.81
2022-10-20T12:02:30.183Z,96339.41
2022-10-20T12:05:15.585Z,96341.91
2022-10-20T12:07:54.177Z,96335.50
2022-10-20T12:10:44.012Z,96330.84
2022-10-20T12:13:31.508Z,96332.84
2022-10-20T12:15:58.195Z,96321.19
2022-10-20T12:18:35.927Z,96328.56
2022-10-20T12:21:05.673Z,96323.88
2022-10-20T12:23:45.078Z,96319.00
2022-10-20T12:27:01.991Z,96311.22
2022-10-20T12:29:31.126Z,96310.66
2022-10-20T12:32:24.361Z,96311.53
2022-10-20T12:34:57.871Z,96304.91
2022-10-20T12:37:27.180Z,96304.34
2022-10-20T12:39:56.166Z,96298.53
2022-10-20T12:42:33.406Z,96304.53
2022-10-20T12:45:07.026Z,96299.50
2022-10-20T12:47:36.983Z,96303.16
2022-10-20T12:50:33.869Z,96295.09
2022-10-20T12:53:29.610Z,96285.81
2022-10-20T12:56:08.349Z,96284.69
2022-10-20T12:58:37.447Z,96277.28
2022-10-20T13:01:11.059Z,96280.06
2022-10-20T13:03:49.095Z,96272.69
2022-10-20T13:06:26.297Z,96280.06
2022-10-20T13:09:21.119Z,96272.00
2022-10-20T13:11:59.501Z,96269.53
2022-10-20T13:14:48.607Z,96277.63
2022-10-20T13:17:50.345Z,96271.97
2022-10-20T13:20:45.798Z,96271.97
2022-10-20T13:23:17.474Z,96276.28
2022-10-20T13:25:44.036Z,96266.19
2022-10-20T13:28:13.366Z,96264.69
2022-10-20T13:30:55.190Z,96263.03
2022-10-20T13:34:03.182Z,96265.97
2022-10-20T13:36:47.964Z,96262.59
2022-10-20T13:39:45.600Z,96258.69
2022-10-20T13:42:21.165Z,96267.16
2022-10-20T13:45:11.542Z,96265.97
2022-10-20T13:47:47.119Z,96266.28
2022-10-20T13:50:28.043Z,96262.56
2022-10-20T13:52:57.808Z,96255.78
2022-10-20T13:55:30.530Z,96260.78
2022-10-20T13:58:03.653Z,96264.06
2022-10-20T14:00:33.180Z,96255.91
2022-10-20T14:03:05.093Z,96255.16
2022-10-20T14:05:39.251Z,96261.28
2022-10-20T14:08:11.523Z,96262.78
2022-10-20T14:10:58.498Z,96264.41
2022-10-20T14:13:29.131Z,96266.38
2022-10-20T14:15:58.258Z,96264.41
2022-10-20T14:18:27.943Z,96265.78
2022-10-20T14:21:03.990Z,96262.66
2022-10-20T14:23:50.826Z,96266.50
2022-10-20T14:26:21.590Z,96264.22
2022-10-20T14:28:50.312Z,96263.44
2022-10-20T14:31:22.042Z,96264.25
2022-10-20T14:33:51.554Z,96263.56
2022-10-20T14:39:01.153Z,96260.00
2022-10-20T14:41:33.852Z,96261.50
2022-10-20T14:44:14.756Z,96256.84
2022-10-20T14:46:50.490Z,96251.75
2022-10-20T14:49:22.826Z,96257.63
2022-10-20T14:51:59.433Z,96254.94
2022-10-20T14:54:37.932Z,96266.00
2022-10-20T14:57:10.470Z,96258.09
2022-10-20T14:59:56.139Z,96267.78
2022-10-20T15:02:25.278Z,96263.50
2022-10-20T15:04:54.966Z,96258.41
2022-10-20T15:07:32.923Z,96254.44
2022-10-20T15:10:07.458Z,96255.19
2022-10-20T15:12:36.984Z,96255.03
2022-10-20T15:15:11.946Z,96260.34
2022-10-20T15:17:47.929Z,96253.22
2022-10-20T15:20:40.161Z,96258.78
2022-10-20T15:23:20.066Z,96257.56
2022-10-20T15:25:58.932Z,96262.63
2022-10-20T15:28:45.998Z,96256.03
2022-10-20T15:31:12.546Z,96257.59
2022-10-20T15:33:39.854Z,96253.81
2022-10-20T15:36:15.587Z,96250.22
2022-10-20T15:38:43.371Z,96253.72
2022-10-20T15:41:22.310Z,96262.94
2022-10-20T15:43:49.139Z,96263.69
2022-10-20T15:46:17.335Z,96268.44
2022-10-20T15:48:44.851Z,96265.81
2022-10-20T15:51:17.935Z,96269.75
2022-10-20T15:53:47.030Z,96269.75
2022-10-20T15:56:13.615Z,96276.69
2022-10-20T15:58:40.228Z,96275.94
2022-10-20T16:01:07.858Z,96277.75
2022-10-20T16:03:35.806Z,96276.31
2022-10-20T16:06:02.365Z,96281.41
2022-10-20T16:08:29.064Z,96280.47
2022-10-20T16:10:56.287Z,96283.09
2022-10-20T16:13:23.030Z,96283.91
2022-10-20T16:15:49.611Z,96290.00
2022-10-20T16:18:16.184Z,96292.38
2022-10-20T16:20:42.779Z,96288.16
2022-10-20T16:23:09.361Z,96298.22
2022-10-20T16:25:39.889Z,96287.50
2022-10-20T16:28:07.277Z,96290.94
2022-10-20T16:30:33.994Z,96291.88
2022-10-20T16:33:00.564Z,96278.53
2022-10-20T16:35:27.337Z,96281.69
2022-10-20T16:37:53.946Z,96282.06
2022-10-20T16:40:20.636Z,96281.28
2022-10-20T16:42:47.218Z,96285.94
2022-10-20T16:45:13.898Z,96288.94
2022-10-20T16:47:40.986Z,96288.56
2022-10-20T16:50:08.491Z,96286.59
2022-10-20T16:52:35.163Z,96275.09
2022-10-20T16:55:01.902Z,96280.16
2022-10-20T16:57:29.661Z,96291.50
2022-10-20T16:59:56.681Z,96292.91
2022-10-20T17:02:23.386Z,96294.72
2022-10-20T17:04:50.464Z,96291.16
2022-10-20T17:07:17.876Z,96291.03
2022-10-20T17:09:44.483Z,96289.28
2022-10-20T17:12:11.104Z,96289.47
2022-10-20T17:14:38.442Z,96285.50
2022-10-20T17:17:05.040Z,96291.59
2022-10-20T17:19:31.624Z,96280.75
2022-10-20T17:21:58.283Z,96283.66
2022-10-20T17:24:24.920Z,96279.50
2022-10-20T17:26:51.754Z,96274.75
2022-10-20T17:29:23.705Z,96286.81
2022-10-20T17:31:52.581Z,96279.97
2022-10-20T17:34:19.258Z,96272.66
2022-10-20T17:36:45.851Z,96268.06
2022-10-20T17:39:16.367Z,96266.94
2022-10-20T17:41:43.679Z,96262.34
2022-10-20T17:44:10.606Z,96255.78
2022-10-20T17:46:37.241Z,96262.00
2022-10-20T17:49:03.999Z,96255.47
2022-10-20T17:51:33.693Z,96261.81
2022-10-20T17:54:01.898Z,96255.16
2022-10-20T17:56:35.347Z,96249.75
2022-10-20T17:59:03.929Z,96239.56
2022-10-20T18:01:36.484Z,96239.56
2022-10-20T18:04:08.483Z,96237.50
2022-10-20T18:06:35.922Z,96247.81
2022-10-20T18:09:06.858Z,96252.88
2022-10-20T18:11:35.114Z,96250.81
2022-10-20T18:14:03.910Z,96249.06
2022-10-20T18:16:32.962Z,96237.97
2022-10-20T18:19:00.493Z,96237.50
2022-10-20T18:21:29.332Z,96235.63
2022-10-20T18:24:07.220Z,96226.38
2022-10-20T18:26:35.499Z,96236.69
2022-10-20T18:29:03.813Z,96226.69
2022-10-20T18:31:32.332Z,96232.75
2022-10-20T18:34:04.121Z,96224.47
2022-10-20T18:36:36.889Z,96222.41
2022-10-20T18:39:07.215Z,96216.38
2022-10-20T18:41:38.019Z,96212.25
2022-10-20T18:44:08.184Z,96216.69
2022-10-20T18:46:35.087Z,96210.50
2022-10-20T18:49:03.995Z,96209.22
2022-10-20T18:51:31.713Z,96206.06
2022-10-20T18:54:00.307Z,96191.91
2022-10-20T18:56:28.871Z,96197.31
2022-10-20T18:58:57.766Z,96195.25
2022-10-20T19:01:27.192Z,96190.78
2022-10-20T19:03:55.551Z,96189.34
2022-10-20T19:06:31.040Z,96180.47
2022-10-20T19:09:03.745Z,96184.44
2022-10-20T19:11:32.679Z,96184.72
2022-10-20T19:14:00.806Z,96186.94
2022-10-20T19:16:30.410Z,96193.13
2022-10-20T19:18:59.626Z,96187.59
2022-10-20T19:21:28.465Z,96190.41
2022-10-20T19:24:22.590Z,96190.69
2022-10-20T19:27:21.298Z,96190.06
2022-10-20T19:29:44.736Z,96194.47
2022-10-20T19:32:12.173Z,96187.13
2022-10-20T19:34:40.310Z,96191.22
2022-10-20T19:37:08.330Z,96190.88
2022-10-20T19:39:39.266Z,96184.06
2022-10-20T19:42:07.534Z,96181.59
2022-10-20T19:44:34.837Z,96186.72
2022-10-20T19:47:01.834Z,96180.84
2022-10-20T19:49:28.462Z,96173.72
2022-10-20T19:51:55.165Z,96174.31
2022-10-20T19:54:22.285Z,96179.03
2022-10-20T19:56:48.932Z,96174.00
2022-10-20T19:59:15.594Z,96176.03
2022-10-20T20:01:42.263Z,96170.16
2022-10-20T20:04:10.850Z,96176.03
2022-10-20T20:06:37.958Z,96169.66
2022-10-20T20:09:07.527Z,96166.94
2022-10-20T20:11:36.441Z,96166.94
2022-10-20T20:14:21.479Z,96170.78
2022-10-20T20:16:48.189Z,96177.50
2022-10-20T20:19:16.460Z,96180.56
2022-10-20T20:21:43.291Z,96171.38
2022-10-20T20:24:11.742Z,96164.28
2022-10-20T20:26:38.335Z,96176.09
2022-10-20T20:29:05.484Z,96187.72
2022-10-20T20:31:33.080Z,96169.16
2022-10-20T20:33:59.704Z,96175.78
2022-10-20T20:36:27.878Z,96171.13
2022-10-20T20:38:57.297Z,96169.03
2022-10-20T20:41:26.104Z,96176.50
2022-10-20T20:43:52.787Z,96170.44
2022-10-20T20:46:22.354Z,96165.88
2022-10-20T20:48:50.012Z,96166.47
2022-10-20T20:51:17.091Z,96162.06
2022-10-20T20:53:43.783Z,96171.00
2022-10-20T20:56:14.254Z,96159.75
2022-10-20T20:58:42.207Z,96161.66
2022-10-20T21:01:12.932Z,96159.31
2022-10-20T21:03:40.083Z,96159.34
2022-10-20T21:06:09.291Z,96163.41
2022-10-20T21:08:37.456Z,96165.44
2022-10-20T21:11:25.619Z,96157.06
2022-10-20T21:13:53.997Z,96154.25
2022-10-20T21:16:26.359Z,96153.69
2022-10-20T21:18:58.559Z,96156.88
2022-10-20T21:21:31.175Z,96161.47
2022-10-20T21:23:59.052Z,96157.88
2022-10-20T21:26:26.934Z,96158.91
2022-10-20T21:28:53.621Z,96163.38
2022-10-20T21:31:22.847Z,96155.38
2022-10-20T21:33:51.721Z,96154.59
2022-10-20T21:36:19.816Z,96148.63
2022-10-20T21:38:46.714Z,96151.13
2022-10-20T21:41:16.126Z,96148.56
2022-10-20T21:43:46.043Z,96146.34
2022-10-20T21:46:28.825Z,96145.31
2022-10-20T21:48:59.390Z,96139.41
2022-10-20T21:51:27.422Z,96140.72
2022-10-20T21:53:58.949Z,96142.38
2022-10-20T21:56:25.788Z,96142.78
2022-10-20T21:58:53.745Z,96143.09
2022-10-20T22:01:23.366Z,96148.63
2022-10-20T22:03:51.252Z,96140.28
2022-10-20T22:06:19.807Z,96142.66
2022-10-20T22:08:48.583Z,96145.00
2022-10-20T22:11:26.962Z,96139.44
2022-10-20T22:13:54.119Z,96133.81
2022-10-20T22:16:23.956Z,96141.84
2022-10-20T22:18:59.005Z,96151.22
2022-10-20T22:21:26.126Z,96146.69
2022-10-20T22:23:57.686Z,96152.66
2022-10-20T22:26:27.019Z,96149.38
2022-10-20T22:28:54.055Z,96157.91
2022-10-20T22:31:21.329Z,96151.22
2022-10-20T22:33:47.940Z,96146.81
2022-10-20T22:36:14.550Z,96145.75
2022-10-20T22:38:41.155Z,96149.59
2022-10-20T22:41:07.984Z,96154.16
2022-10-20T22:43:34.647Z,96161.75
2022-10-20T22:46:01.264Z,96151.81
2022-10-20T22:48:27.962Z,96150.25
2022-10-20T22:50:54.623Z,96153.03
2022-10-20T22:53:21.346Z,96159.59
2022-10-20T22:55:47.923Z,96150.84
2022-10-20T22:58:14.718Z,96158.97
2022-10-20T23:00:43.779Z,96148.91
2022-10-20T23:03:10.847Z,96154.78
2022-10-20T23:05:37.586Z,96157.59
2022-10-20T23:08:04.791Z,96160.88
2022-10-20T23:10:31.511Z,96167.00
2022-10-20T23:12:58.083Z,96171.16
2022-10-20T23:15:24.753Z,96174.38
2022-10-20T23:17:51.332Z,96182.72
2022-10-20T23:20:18.215Z,96187.72
2022-10-20T23:22:45.583Z,96201.88
2022-10-20T23:25:12.150Z,96214.91
2022-10-20T23:27:39.424Z,96227.59
2022-10-20T23:30:06.653Z,96233.81
2022-10-20T23:32:33.847Z,96227.13
2022-10-20T23:35:00.441Z,96225.41
2022-10-20T23:37:27.027Z,96234.06
2022-10-20T23:39:53.659Z,96241.47
2022-10-20T23:42:20.296Z,96254.97
2022-10-20T23:44:46.927Z,96261.84
2022-10-20T23:47:13.516Z,96270.69
2022-10-20T23:49:40.099Z,96275.19
2022-10-20T23:52:06.667Z,96277.13
2022-10-20T23:54:33.325Z,96288.00
2022-10-20T23:56:59.931Z,96300.16
2022-10-20T23:59:26.534Z,96289.09
